Edward G. Pitka Sr Airport
PAGA : now visible

Aeroporto :











RITROVATECI SU...

 
LOGIN :

Iscrizione | Disclaimer

   EN    FR    IT 

 









Sommario :    VFR   VFR Marginale   IFR   IFR Intensivo   IFR Molto Intensivo
Visibilità : 
Base nubi : 
>= 8 km
>= 3000ft
5 / 8 km
1000 / 3000 ft
1500m / 5 km
500 / 1000 ft
800 / 1500m
200 / 500 ft
< 800m
< 200 ft
Simboli :   Temporali  Nebbia  Neve Forte  Precipitazioni Forti  Vento > 20 kt






- Altitudine del aeroporto : 153 ft
- Codice IATA : GAL


PAGA - Edward G. Pitka Sr

ULTIMO METAR :
  • 011956Z 11006KT 10SM CLR 19/07 A2953 RMK AO2 SLP000 T01890067

METARs OBSOLETI :
  • 011856Z 09008KT 10SM BKN080 18/06 A2953 RMK AO2 SLP001 T01830061
  • 011756Z 11007KT 10SM SCT100 16/09 A2953 RMK AO2 SLP000 T01610089 10161 20106 51002

TAF PAGA
Valido dal 01 a 18 ore il 02 a 18 ore UTC


011740Z 0118/0218 36004KT P6SM BKN080
FM012000 10008KT P6SM -SHRA VCTS BKN050CB BKN100
FM020600 15004KT P6SM VCSH SCT050 BKN100
FIR PAZA / America del Nord



MetMap, La meteo Aeronautica in un colpo d'occhio ! - Copyright ORBIFLY Dicembre 2007 - Disclaimer

ORBIFLY MET'MAP TEAM :

Programmazione e sviluppo : Alexandra Zaïnal
Concezione : Baudouin d'Aumeries
Aiuto per la programmazione : Marc-Olivier Méhu
Supporto tecnico e logistico : Manuel Goepfert
Aiuto per la traduzione : Arnaldo La Scala

Contatto : metmap@orbifly.com




FONTI E CREDITI :

   NOAA       Earth
Advisory